Time;durP1;ratioP1;P1;durP2;ratioP2;P2;SDS_P1;SDS_P2;PMS_P1;PMS_P2;Temp;Humidity;BMP_temperature;BMP_pressure;BME280_temperature;BME280_humidity;BME280_pressure;Samples;Min_cycle;Max_cycle;Signal;HPM_P1;HPM_P2
2022/04/13 00:02:07;;;;;;;13.68;10.40;;;12.70;99.90;;;;;;5052331;28;20041;-68
2022/04/13 00:04:32;;;;;;;11.93;10.00;;;12.60;99.90;;;;;;5053407;28;20600;-68
2022/04/13 00:06:58;;;;;;;15.75;10.63;;;12.60;99.90;;;;;;5052064;28;20413;-68
2022/04/13 00:09:24;;;;;;;16.88;10.10;;;12.50;99.90;;;;;;5051781;28;20444;-68
2022/04/13 00:11:52;;;;;;;21.33;10.32;;;12.40;99.90;;;;;;5051881;28;20075;-68
2022/04/13 00:14:22;;;;;;;13.93;10.15;;;12.40;99.90;;;;;;5067222;28;20040;-68
2022/04/13 00:16:48;;;;;;;;;;;12.20;99.90;;;;;;5070080;28;20564;-68
2022/04/13 00:19:14;;;;;;;14.38;9.90;;;12.20;99.90;;;;;;5071716;28;19916;-68
2022/04/13 00:21:40;;;;;;;15.82;11.30;;;12.10;99.90;;;;;;5073058;28;20113;-68
2022/04/13 00:24:07;;;;;;;16.30;9.77;;;12.00;99.90;;;;;;5072920;28;20473;-68
2022/04/13 00:26:33;;;;;;;16.27;10.50;;;12.00;99.90;;;;;;5071867;28;20452;-68
2022/04/13 00:28:59;;;;;;;17.30;11.60;;;12.00;99.90;;;;;;5054902;28;20053;-68
2022/04/13 00:31:25;;;;;;;17.48;11.40;;;12.00;99.90;;;;;;5071773;28;20041;-68
2022/04/13 00:33:51;;;;;;;19.40;12.70;;;12.00;99.90;;;;;;5073004;28;20037;-68
2022/04/13 00:36:16;;;;;;;19.00;13.00;;;12.00;99.90;;;;;;5071572;28;20043;-68
2022/04/13 00:38:42;;;;;;;19.55;13.60;;;12.00;99.90;;;;;;5071464;28;20044;-68
2022/04/13 00:41:08;;;;;;;19.20;13.13;;;12.00;99.90;;;;;;5072936;28;20041;-68
2022/04/13 00:43:34;;;;;;;18.17;13.02;;;12.00;99.90;;;;;;5054768;28;20734;-69
2022/04/13 00:46:00;;;;;;;24.60;14.68;;;12.10;99.90;;;;;;5069186;28;20040;-69
2022/04/13 00:48:36;;;;;;;21.00;14.10;;;12.10;99.90;;;;;;5054557;28;20052;-68
2022/04/13 00:51:03;;;;;;;21.95;14.43;;;12.10;99.90;;;;;;5071511;28;20488;-68
2022/04/13 00:53:30;;;;;;;21.35;13.73;;;12.10;99.90;;;;;;5071356;28;20052;-69
2022/04/13 00:55:58;;;;;;;20.35;13.70;;;12.10;99.90;;;;;;5072682;28;20082;-68
2022/04/13 00:58:31;;;;;;;25.27;15.05;;;12.10;99.90;;;;;;5071658;28;20357;-68
2022/04/13 01:00:57;;;;;;;22.23;14.57;;;12.10;99.90;;;;;;5072636;28;20036;-68
2022/04/13 01:03:25;;;;;;;25.50;14.88;;;12.10;99.90;;;;;;5072733;28;20040;-68
2022/04/13 01:05:53;;;;;;;25.42;16.30;;;12.10;99.90;;;;;;5054432;28;20123;-69
2022/04/13 01:08:20;;;;;;;22.30;15.77;;;12.10;99.90;;;;;;5054536;28;20634;-68
2022/04/13 01:10:50;;;;;;;24.63;16.17;;;12.10;99.90;;;;;;5071424;28;20401;-68
2022/04/13 01:13:17;;;;;;;24.17;15.18;;;12.00;99.90;;;;;;5066796;28;20099;-68
2022/04/13 01:15:44;;;;;;;28.38;15.80;;;12.00;99.90;;;;;;5049209;28;20041;-68
2022/04/13 01:18:10;;;;;;;24.13;15.55;;;11.90;99.90;;;;;;5053983;28;20405;-68
2022/04/13 01:20:39;;;;;;;27.27;15.63;;;11.90;99.90;;;;;;5055166;28;20049;-67
2022/04/13 01:23:07;;;;;;;28.00;16.67;;;11.90;99.90;;;;;;5056175;28;20060;-68
2022/04/13 01:25:32;;;;;;;26.05;16.70;;;11.90;99.90;;;;;;5038273;28;20060;-68
2022/04/13 01:27:58;;;;;;;23.58;15.75;;;11.90;99.90;;;;;;5056225;28;20045;-68
2022/04/13 01:30:25;;;;;;;28.45;17.38;;;11.90;99.90;;;;;;5055193;28;20037;-68
2022/04/13 01:32:51;;;;;;;26.02;15.35;;;11.90;99.90;;;;;;5056328;28;20076;-68
2022/04/13 01:35:17;;;;;;;23.42;15.65;;;11.90;99.90;;;;;;5056150;28;20036;-68
2022/04/13 01:37:45;;;;;;;26.30;16.23;;;11.90;99.90;;;;;;5054991;28;20052;-68
2022/04/13 01:40:11;;;;;;;23.10;15.18;;;11.90;99.90;;;;;;5054766;28;20045;-68
2022/04/13 01:42:37;;;;;;;24.20;16.73;;;11.80;99.90;;;;;;5054929;28;20039;-69
2022/04/13 01:45:05;;;;;;;23.63;15.05;;;11.80;99.90;;;;;;5055889;28;20045;-68
2022/04/13 01:47:31;;;;;;;23.08;14.90;;;11.70;99.90;;;;;;5053760;28;20110;-68
2022/04/13 01:49:56;;;;;;;26.33;15.65;;;11.70;99.90;;;;;;5054490;28;20482;-67
2022/04/13 01:52:22;;;;;;;28.05;14.75;;;11.70;99.90;;;;;;5055683;28;20128;-68
2022/04/13 01:54:48;;;;;;;23.63;15.77;;;11.70;99.90;;;;;;5055967;28;20045;-68
2022/04/13 01:57:14;;;;;;;24.17;14.80;;;11.70;99.90;;;;;;5054475;28;20520;-68
2022/04/13 01:59:39;;;;;;;21.92;16.00;;;11.70;99.90;;;;;;5054420;28;20040;-68
2022/04/13 02:02:05;;;;;;;25.10;16.90;;;11.70;99.90;;;;;;5038016;28;20057;-68
2022/04/13 02:04:32;;;;;;;23.48;15.77;;;11.60;99.90;;;;;;5055634;28;20059;-68
2022/04/13 02:06:58;;;;;;;29.55;16.85;;;11.60;99.90;;;;;;5054306;28;20036;-68
2022/04/13 02:09:23;;;;;;;25.00;17.45;;;11.60;99.90;;;;;;5054533;28;20040;-68
2022/04/13 02:11:49;;;;;;;25.50;17.10;;;11.60;99.90;;;;;;5037620;28;20431;-68
2022/04/13 02:14:16;;;;;;;27.13;17.00;;;11.60;99.90;;;;;;5069542;28;20044;-68
2022/04/13 02:16:42;;;;;;;29.48;18.27;;;11.70;99.90;;;;;;5071983;28;20037;-68
2022/04/13 02:19:09;;;;;;;24.55;16.77;;;11.70;99.90;;;;;;5075283;28;20037;-68
2022/04/13 02:21:35;;;;;;;26.92;16.92;;;11.80;99.90;;;;;;5075042;28;20052;-68
2022/04/13 02:24:01;;;;;;;26.35;16.23;;;11.80;99.90;;;;;;5074099;28;20465;-68
2022/04/13 02:26:27;;;;;;;20.02;13.90;;;11.90;99.90;;;;;;5074110;28;20174;-68
2022/04/13 02:28:53;;;;;;;22.60;14.95;;;11.90;99.90;;;;;;5073950;28;20490;-68
2022/04/13 02:31:19;;;;;;;23.77;15.38;;;12.00;99.90;;;;;;5074096;28;20041;-68
2022/04/13 02:33:45;;;;;;;26.42;16.20;;;12.00;99.90;;;;;;5057399;28;20377;-68
2022/04/13 02:36:11;;;;;;;23.77;15.43;;;12.00;99.90;;;;;;5073904;28;20044;-68
2022/04/13 02:38:37;;;;;;;23.65;15.43;;;12.00;99.90;;;;;;5075238;28;20450;-68
2022/04/13 02:41:04;;;;;;;24.92;16.08;;;11.90;99.90;;;;;;5073693;28;20554;-68
2022/04/13 02:43:29;;;;;;;25.70;16.17;;;11.90;99.90;;;;;;5073663;28;20051;-68
2022/04/13 02:45:57;;;;;;;26.98;16.05;;;11.90;99.90;;;;;;5071535;28;20040;-69
2022/04/13 02:48:23;;;;;;;24.42;16.05;;;11.90;99.90;;;;;;5073459;28;20045;-68
2022/04/13 02:50:49;;;;;;;21.05;15.52;;;11.80;99.90;;;;;;5073530;28;20465;-68
2022/04/13 02:53:15;;;;;;;24.58;16.52;;;11.70;99.90;;;;;;5073437;28;20082;-68
2022/04/13 02:55:42;;;;;;;25.70;16.42;;;11.70;99.90;;;;;;5074641;28;20473;-68
2022/04/13 02:58:08;;;;;;;23.58;15.75;;;11.70;99.90;;;;;;5073296;28;20056;-68
2022/04/13 03:00:33;;;;;;;24.52;16.70;;;11.60;99.90;;;;;;5073242;28;20048;-68
2022/04/13 03:02:59;;;;;;;23.33;16.30;;;11.50;99.90;;;;;;5073157;28;20131;-68
2022/04/13 03:05:25;;;;;;;25.67;16.85;;;11.50;99.90;;;;;;5074210;28;20052;-68
2022/04/13 03:07:51;;;;;;;27.92;17.80;;;11.40;99.90;;;;;;5074551;28;20040;-68
2022/04/13 03:10:17;;;;;;;24.45;17.15;;;11.30;99.90;;;;;;5073013;28;20393;-68
2022/04/13 03:12:43;;;;;;;24.25;17.23;;;11.30;99.90;;;;;;5072935;28;20105;-68
2022/04/13 03:15:10;;;;;;;22.17;15.75;;;11.20;99.90;;;;;;5052839;28;20041;-68
2022/04/13 03:17:36;;;;;;;24.05;17.10;;;11.10;99.90;;;;;;5051468;28;20037;-68
2022/04/13 03:20:02;;;;;;;24.15;16.98;;;11.00;99.90;;;;;;5052792;28;20482;-68
2022/04/13 03:22:28;;;;;;;30.50;16.25;;;10.90;99.90;;;;;;5054059;28;20057;-68
2022/04/13 03:24:55;;;;;;;23.80;16.00;;;10.80;99.90;;;;;;5052679;28;20045;-68
2022/04/13 03:27:20;;;;;;;27.80;17.63;;;10.80;99.90;;;;;;5052521;28;20037;-68
2022/04/13 03:29:46;;;;;;;31.05;17.70;;;10.80;99.90;;;;;;5053005;28;20152;-68
2022/04/13 03:32:12;;;;;;;27.80;18.35;;;10.80;99.90;;;;;;5053842;28;20037;-68
2022/04/13 03:34:38;;;;;;;28.73;17.42;;;10.70;99.90;;;;;;5052785;28;20033;-68
2022/04/13 03:37:04;;;;;;;26.58;18.70;;;10.70;99.90;;;;;;5052445;28;20471;-68
2022/04/13 03:39:30;;;;;;;25.98;18.02;;;10.70;99.90;;;;;;5052396;28;20052;-68
2022/04/13 03:41:56;;;;;;;30.92;20.05;;;10.70;99.90;;;;;;5052239;28;20492;-68
2022/04/13 03:44:22;;;;;;;26.63;18.63;;;10.70;99.90;;;;;;5053828;28;20120;-68
2022/04/13 03:46:48;;;;;;;29.42;18.58;;;10.70;99.90;;;;;;5050263;28;20362;-68
2022/04/13 03:49:15;;;;;;;27.55;19.45;;;10.70;99.90;;;;;;5052566;28;20498;-68
2022/04/13 03:51:41;;;;;;;27.58;17.75;;;10.70;99.90;;;;;;5053779;28;20083;-68
2022/04/13 03:54:07;;;;;;;29.00;18.70;;;10.70;99.90;;;;;;5052388;28;20072;-68
2022/04/13 03:56:33;;;;;;;29.08;18.75;;;10.70;99.90;;;;;;5052158;28;20084;-68
2022/04/13 03:59:03;;;;;;;25.05;17.15;;;10.70;99.90;;;;;;5052150;28;20045;-67
2022/04/13 04:01:30;;;;;;;24.30;16.80;;;10.70;99.90;;;;;;5053366;28;20037;-68
2022/04/13 04:03:55;;;;;;;27.05;18.08;;;10.60;99.90;;;;;;5053301;28;20049;-67
2022/04/13 04:06:21;;;;;;;24.38;16.45;;;10.60;99.90;;;;;;5051963;28;20045;-67
2022/04/13 04:08:47;;;;;;;27.00;18.60;;;10.60;99.90;;;;;;5053462;28;20102;-67
2022/04/13 04:11:14;;;;;;;28.70;18.60;;;10.60;99.90;;;;;;5051890;28;20048;-67
2022/04/13 04:13:39;;;;;;;30.38;19.40;;;10.60;99.90;;;;;;5061115;28;20040;-68
2022/04/13 04:16:05;;;;;;;26.70;18.55;;;10.70;99.90;;;;;;5069655;28;20055;-67
2022/04/13 04:18:31;;;;;;;27.13;17.92;;;10.70;99.90;;;;;;5069067;28;20044;-67
2022/04/13 04:20:57;;;;;;;32.08;20.33;;;10.70;99.90;;;;;;5072059;28;20124;-67
2022/04/13 04:23:23;;;;;;;30.38;19.42;;;10.70;99.90;;;;;;5071653;28;20079;-68
2022/04/13 04:25:49;;;;;;;28.55;19.80;;;10.80;99.90;;;;;;5073105;28;20453;-68
2022/04/13 04:28:15;;;;;;;29.23;19.45;;;10.80;99.90;;;;;;5071725;28;20523;-68
2022/04/13 04:30:42;;;;;;;28.67;20.02;;;10.80;99.90;;;;;;5072999;28;20097;-68
2022/04/13 04:33:09;;;;;;;29.90;20.02;;;10.80;99.90;;;;;;5054885;28;20138;-68
2022/04/13 04:35:35;;;;;;;32.30;20.60;;;10.80;99.90;;;;;;5071644;28;20047;-68
2022/04/13 04:38:02;;;;;;;31.77;20.88;;;10.80;99.90;;;;;;5054832;28;20051;-68
2022/04/13 04:40:29;;;;;;;32.35;21.50;;;10.70;99.90;;;;;;5072856;28;20048;-68
2022/04/13 04:42:55;;;;;;;30.27;21.20;;;10.80;99.90;;;;;;5054789;28;20477;-67
2022/04/13 04:45:21;;;;;;;32.05;21.63;;;10.80;99.90;;;;;;5053159;28;20051;-68
2022/04/13 04:47:49;;;;;;;33.58;23.90;;;10.80;99.90;;;;;;5072533;28;20040;-68
2022/04/13 04:50:19;;;;;;;37.78;24.55;;;10.80;99.90;;;;;;5054720;28;20041;-69
2022/04/13 04:52:45;;;;;;;;;;;10.90;99.90;;;;;;5071439;28;20044;-68
2022/04/13 04:55:13;;;;;;;37.05;23.55;;;10.80;99.90;;;;;;5072340;28;19917;-69
2022/04/13 04:57:40;;;;;;;40.13;24.63;;;10.90;99.90;;;;;;5071539;28;20111;-68
2022/04/13 05:00:08;;;;;;;37.97;24.88;;;10.90;99.90;;;;;;5071351;28;20066;-68
2022/04/13 05:02:37;;;;;;;35.75;24.67;;;10.90;99.90;;;;;;5071499;28;20502;-68
2022/04/13 05:05:04;;;;;;;39.03;27.20;;;11.00;99.90;;;;;;5072741;28;20048;-68
2022/04/13 05:07:30;;;;;;;38.40;25.30;;;11.00;99.90;;;;;;5072598;28;20038;-68
2022/04/13 05:09:58;;;;;;;36.42;25.08;;;11.00;99.90;;;;;;5071389;28;20040;-68
2022/04/13 05:12:24;;;;;;;34.95;23.92;;;11.10;99.90;;;;;;5071165;28;20037;-68
2022/04/13 05:14:52;;;;;;;36.55;25.92;;;11.10;99.90;;;;;;5052150;28;20531;-68
2022/04/13 05:17:18;;;;;;;35.83;24.10;;;11.20;99.90;;;;;;5048991;28;20049;-68
2022/04/13 05:19:44;;;;;;;43.08;26.95;;;11.20;99.90;;;;;;5052621;28;20037;-68
2022/04/13 05:22:10;;;;;;;34.42;25.75;;;11.20;99.90;;;;;;5050838;28;20502;-68
2022/04/13 05:24:36;;;;;;;33.28;23.95;;;11.20;99.90;;;;;;5034735;28;20045;-68
2022/04/13 05:27:02;;;;;;;36.00;23.77;;;11.20;99.90;;;;;;5052134;28;20379;-68
2022/04/13 05:29:27;;;;;;;36.20;24.60;;;11.20;99.90;;;;;;5050963;28;20049;-68
2022/04/13 05:31:53;;;;;;;33.72;24.30;;;11.20;99.90;;;;;;5052389;28;20060;-68
2022/04/13 05:34:19;;;;;;;32.55;23.20;;;11.30;99.90;;;;;;5050880;28;20045;-69
2022/04/13 05:36:45;;;;;;;34.75;24.25;;;11.30;99.90;;;;;;5051196;28;20048;-68
2022/04/13 05:39:11;;;;;;;40.22;25.38;;;11.30;99.90;;;;;;5050988;28;20440;-68
2022/04/13 05:41:36;;;;;;;34.60;24.85;;;11.30;99.90;;;;;;5051066;28;20060;-68
2022/04/13 05:44:02;;;;;;;31.02;23.10;;;11.30;99.90;;;;;;5050736;28;20524;-69
2022/04/13 05:46:28;;;;;;;34.72;23.42;;;11.40;99.90;;;;;;5048600;28;20044;-68
2022/04/13 05:48:54;;;;;;;37.10;25.08;;;11.40;99.90;;;;;;5050958;28;20128;-68
2022/04/13 05:51:20;;;;;;;38.30;25.25;;;11.50;99.90;;;;;;5052166;28;20041;-68
2022/04/13 05:53:45;;;;;;;34.00;23.70;;;11.50;99.90;;;;;;5034054;28;20056;-68
2022/04/13 05:56:11;;;;;;;29.85;23.35;;;11.60;99.90;;;;;;5050960;28;20033;-68
2022/04/13 05:58:37;;;;;;;34.63;23.83;;;11.70;99.90;;;;;;5051862;28;20470;-68
2022/04/13 06:01:03;;;;;;;38.65;24.00;;;11.70;99.90;;;;;;5051016;28;20037;-69
2022/04/13 06:03:29;;;;;;;39.45;24.67;;;11.80;99.90;;;;;;5053398;28;20037;-68
2022/04/13 06:05:54;;;;;;;38.45;24.05;;;11.90;99.90;;;;;;5055496;28;20064;-68
2022/04/13 06:08:20;;;;;;;31.20;23.13;;;12.00;99.90;;;;;;5054151;28;20079;-68
2022/04/13 06:10:46;;;;;;;37.00;23.85;;;12.00;99.90;;;;;;5055573;28;20041;-68
2022/04/13 06:13:12;;;;;;;35.90;23.63;;;12.10;99.90;;;;;;5042917;28;20046;-68
2022/04/13 06:15:38;;;;;;;34.72;23.40;;;12.10;99.90;;;;;;5071949;28;20072;-69
2022/04/13 06:18:04;;;;;;;35.97;22.23;;;12.20;99.90;;;;;;5074079;28;20044;-68
2022/04/13 06:20:30;;;;;;;30.88;22.60;;;12.20;99.90;;;;;;5071492;28;20044;-68
2022/04/13 06:22:55;;;;;;;33.47;22.08;;;12.30;99.90;;;;;;5073854;28;20737;-68
2022/04/13 06:25:22;;;;;;;32.47;21.55;;;12.30;99.90;;;;;;5075698;28;20090;-69
2022/04/13 06:27:48;;;;;;;26.65;19.02;;;12.40;99.90;;;;;;5074076;28;20181;-69
2022/04/13 06:30:14;;;;;;;32.63;19.00;;;12.40;99.90;;;;;;5074117;28;20494;-68
2022/04/13 06:32:42;;;;;;;29.02;20.60;;;12.50;99.90;;;;;;5073963;28;20503;-67
2022/04/13 06:35:11;;;;;;;31.38;19.75;;;12.50;99.90;;;;;;5073946;28;20487;-68
2022/04/13 06:37:39;;;;;;;29.13;19.63;;;12.60;99.90;;;;;;5073674;28;20523;-68
2022/04/13 06:40:06;;;;;;;28.23;18.77;;;12.60;99.90;;;;;;5073555;28;20082;-68
2022/04/13 06:42:39;;;;;;;31.25;19.05;;;12.80;99.90;;;;;;5073570;28;20041;-68
2022/04/13 06:45:11;;;;;;;29.42;19.13;;;12.80;99.90;;;;;;5074676;28;20040;-68
2022/04/13 06:47:37;;;;;;;22.50;16.75;;;13.00;99.90;;;;;;5071456;28;20115;-68
2022/04/13 06:50:05;;;;;;;27.13;17.08;;;13.00;99.90;;;;;;5072855;28;20044;-68
2022/04/13 06:52:35;;;;;;;25.50;17.30;;;13.20;99.90;;;;;;5072513;28;20082;-68
2022/04/13 06:55:02;;;;;;;25.10;16.17;;;13.40;99.90;;;;;;5056108;28;20451;-68
2022/04/13 06:57:28;;;;;;;24.88;15.85;;;13.50;99.90;;;;;;5056020;28;20048;-68
2022/04/13 06:59:53;;;;;;;25.77;16.95;;;13.50;99.90;;;;;;5072384;28;20497;-68
2022/04/13 07:02:19;;;;;;;28.58;16.58;;;13.60;99.90;;;;;;5072609;28;20098;-67
2022/04/13 07:04:45;;;;;;;20.90;14.30;;;13.60;99.90;;;;;;5072216;28;20595;-67
2022/04/13 07:07:11;;;;;;;24.05;15.13;;;13.80;99.90;;;;;;5072417;28;20041;-67
2022/04/13 07:09:36;;;;;;;21.58;15.40;;;13.80;99.90;;;;;;5071867;28;20067;-70
2022/04/13 07:12:03;;;;;;;22.67;13.85;;;13.90;99.90;;;;;;5073694;28;20071;-69
2022/04/13 07:14:28;;;;;;;18.45;12.52;;;14.10;99.90;;;;;;5052782;28;20041;-69
2022/04/13 07:16:54;;;;;;;23.10;13.82;;;14.20;99.90;;;;;;5050898;28;20107;-69
2022/04/13 07:19:20;;;;;;;27.95;13.82;;;14.30;99.90;;;;;;5034701;28;20199;-68
2022/04/13 07:21:46;;;;;;;18.73;12.35;;;14.30;99.90;;;;;;5071823;28;20131;-69
2022/04/13 07:24:12;;;;;;;17.50;12.07;;;14.40;99.90;;;;;;5071773;28;20059;-69
2022/04/13 07:26:38;;;;;;;17.80;12.40;;;14.40;99.90;;;;;;5071513;28;20048;-69
2022/04/13 07:29:04;;;;;;;19.63;13.52;;;14.50;99.90;;;;;;5072952;28;20049;-69
2022/04/13 07:31:29;;;;;;;18.45;12.45;;;14.40;99.90;;;;;;5071863;28;20094;-68
2022/04/13 07:33:56;;;;;;;17.83;12.02;;;14.50;99.90;;;;;;5072988;28;20045;-68
2022/04/13 07:36:23;;;;;;;19.67;11.60;;;14.60;99.90;;;;;;5071726;28;20722;-69
2022/04/13 07:38:50;;;;;;;13.57;11.10;;;14.80;99.90;;;;;;5072698;28;20473;-69
2022/04/13 07:41:16;;;;;;;16.23;10.88;;;15.00;99.90;;;;;;5071842;28;20103;-69
2022/04/13 07:43:43;;;;;;;17.70;10.80;;;15.10;99.90;;;;;;5071847;28;20445;-69
2022/04/13 07:46:10;;;;;;;16.02;10.07;;;15.10;99.90;;;;;;5070399;28;20120;-69
2022/04/13 07:48:36;;;;;;;17.75;10.45;;;15.30;99.90;;;;;;5050819;28;20071;-69
2022/04/13 07:51:01;;;;;;;16.55;10.88;;;15.50;99.90;;;;;;5066811;28;20041;-69
2022/04/13 07:53:27;;;;;;;16.90;10.05;;;15.80;99.90;;;;;;5050394;28;20472;-70
2022/04/13 07:55:53;;;;;;;15.98;10.38;;;16.30;99.90;;;;;;5047253;28;20423;-70
2022/04/13 07:58:19;;;;;;;15.40;11.40;;;16.50;99.90;;;;;;5049847;28;20043;-70
2022/04/13 08:00:45;;;;;;;17.05;10.65;;;16.70;99.90;;;;;;5055709;28;20040;-69
2022/04/13 08:03:11;;;;;;;20.40;11.20;;;17.00;99.90;;;;;;5063157;28;20445;-69
2022/04/13 08:05:38;;;;;;;15.52;10.13;;;17.40;99.90;;;;;;5062953;28;20055;-70
2022/04/13 08:08:04;;;;;;;17.48;10.45;;;17.70;99.90;;;;;;5064157;28;20505;-68
2022/04/13 08:10:30;;;;;;;17.30;9.77;;;18.10;99.90;;;;;;5065487;28;20040;-68
2022/04/13 08:12:56;;;;;;;18.20;9.13;;;18.10;99.90;;;;;;5046750;28;20032;-68
2022/04/13 08:15:22;;;;;;;9.70;7.50;;;18.00;99.90;;;;;;5051550;28;20052;-70
2022/04/13 08:17:48;;;;;;;15.63;9.18;;;18.00;99.90;;;;;;5052795;28;20048;-70
2022/04/13 08:20:14;;;;;;;11.50;8.55;;;18.00;99.90;;;;;;5051988;28;20055;-68
2022/04/13 08:22:41;;;;;;;14.68;9.48;;;18.00;99.90;;;;;;5050953;28;20143;-68
2022/04/13 08:25:08;;;;;;;12.52;7.45;;;17.70;99.90;;;;;;5051470;28;20405;-68
2022/04/13 08:27:34;;;;;;;11.48;7.65;;;17.70;99.90;;;;;;5050663;28;20047;-69
2022/04/13 08:30:00;;;;;;;14.52;8.60;;;17.70;99.90;;;;;;5034857;28;20037;-68
2022/04/13 08:32:25;;;;;;;12.57;9.35;;;17.70;99.90;;;;;;5052762;28;20036;-68
2022/04/13 08:34:52;;;;;;;13.07;8.88;;;17.50;99.90;;;;;;5034797;28;20155;-68
2022/04/13 08:37:19;;;;;;;12.05;8.60;;;17.40;99.90;;;;;;5051946;28;20099;-68
2022/04/13 08:39:45;;;;;;;13.88;8.63;;;17.30;99.90;;;;;;5050838;28;20098;-69
2022/04/13 08:42:12;;;;;;;13.02;8.77;;;17.40;99.90;;;;;;5084407;28;20394;-68
2022/04/13 08:44:56;;;;;;;18.27;10.02;;;17.70;99.90;;;;;;5050598;28;20047;-68
2022/04/13 08:47:26;;;;;;;13.45;9.25;;;18.20;99.90;;;;;;5052301;28;20041;-68
2022/04/13 08:49:53;;;;;;;13.82;7.82;;;18.90;99.90;;;;;;5050464;28;20504;-69
2022/04/13 08:52:30;;;;;;;15.88;8.00;;;19.40;99.90;;;;;;5051930;28;20412;-69
2022/04/13 08:55:07;;;;;;;13.05;7.90;;;19.60;99.90;;;;;;5051127;28;20037;-69
2022/04/13 08:57:41;;;;;;;12.60;7.78;;;19.70;99.90;;;;;;5051499;28;20056;-69
2022/04/13 09:00:18;;;;;;;10.63;7.55;;;19.60;99.90;;;;;;5048657;28;20041;-69
2022/04/13 09:03:16;;;;;;;13.35;7.93;;;19.50;99.90;;;;;;5052377;28;20044;-70
2022/04/13 09:05:45;;;;;;;11.80;7.22;;;19.40;99.90;;;;;;5052842;28;20041;-69
2022/04/13 09:08:11;;;;;;;13.00;6.72;;;19.50;99.90;;;;;;5034629;28;20053;-69
2022/04/13 09:10:38;;;;;;;16.48;6.78;;;19.60;99.90;;;;;;5052354;28;20041;-70
2022/04/13 09:13:10;;;;;;;14.15;7.47;;;20.00;99.90;;;;;;5055370;28;20036;-69
2022/04/13 09:15:40;;;;;;;11.93;6.15;;;20.40;99.90;;;;;;5069070;28;20067;-67
2022/04/13 09:18:10;;;;;;;13.60;6.60;;;20.60;99.90;;;;;;5072603;28;20047;-68
2022/04/13 09:20:36;;;;;;;;;;;20.40;99.90;;;;;;5071485;28;20040;-68
2022/04/13 09:23:03;;;;;;;12.43;6.57;;;20.60;99.90;;;;;;5071128;28;20435;-68
2022/04/13 09:25:36;;;;;;;8.50;5.13;;;20.70;99.90;;;;;;5071139;28;20060;-68
2022/04/13 09:28:03;;;;;;;11.60;5.75;;;20.80;99.90;;;;;;5071062;28;20036;-67
2022/04/13 09:30:32;;;;;;;12.57;7.50;;;20.80;99.90;;;;;;5072142;28;20400;-67
2022/04/13 09:32:59;;;;;;;11.00;6.85;;;21.10;99.90;;;;;;5055308;28;20040;-68
2022/04/13 09:35:25;;;;;;;12.75;6.75;;;21.20;99.90;;;;;;5067855;28;20045;-68
2022/04/13 09:37:52;;;;;;;10.95;6.28;;;21.20;99.90;;;;;;5071380;28;20048;-68
2022/04/13 09:40:36;;;;;;;10.90;6.35;;;21.20;99.90;;;;;;5076299;28;20123;-68
2022/04/13 09:43:11;;;;;;;10.18;5.00;;;21.40;99.90;;;;;;5075135;28;20388;-67
2022/04/13 09:45:41;;;;;;;9.50;5.65;;;21.20;99.90;;;;;;5070693;28;20043;-68
2022/04/13 09:48:09;;;;;;;9.88;5.57;;;20.90;99.90;;;;;;5054741;28;20106;-67
2022/04/13 09:50:36;;;;;;;9.38;5.68;;;20.40;99.90;;;;;;5054154;28;20497;-67
2022/04/13 09:53:05;;;;;;;10.88;6.40;;;20.10;99.90;;;;;;5075493;28;20064;-68
2022/04/13 09:55:33;;;;;;;12.80;6.33;;;19.70;99.90;;;;;;5074330;28;20068;-67
2022/04/13 09:58:07;;;;;;;17.60;7.63;;;19.40;99.90;;;;;;5075757;28;20754;-66
2022/04/13 10:00:37;;;;;;;12.57;7.32;;;19.30;99.90;;;;;;5075409;28;20040;-67
2022/04/13 10:03:19;;;;;;;11.65;6.78;;;19.40;99.90;;;;;;5074609;28;20052;-67
2022/04/13 10:05:52;;;;;;;14.00;9.75;;;19.40;99.90;;;;;;5057653;28;20047;-67
2022/04/13 10:08:22;;;;;;;15.68;9.45;;;19.40;99.90;;;;;;5074347;28;20040;-67
2022/04/13 10:10:50;;;;;;;16.77;9.75;;;19.20;99.90;;;;;;5074204;28;20078;-69
2022/04/13 10:13:38;;;;;;;18.35;9.65;;;18.90;99.90;;;;;;5068576;28;20098;-68
2022/04/13 10:16:07;;;;;;;16.63;9.88;;;18.60;99.90;;;;;;5052130;28;20159;-67
2022/04/13 10:18:53;;;;;;;21.97;11.23;;;18.40;99.90;;;;;;5037769;28;20127;-67
2022/04/13 10:21:43;;;;;;;14.18;9.65;;;18.40;99.90;;;;;;5053798;28;20283;-70
2022/04/13 10:24:11;;;;;;;14.35;9.10;;;18.50;99.90;;;;;;5037369;28;20127;-70
2022/04/13 10:26:39;;;;;;;19.17;11.38;;;18.30;99.90;;;;;;5054826;28;20045;-69
2022/04/13 10:29:15;;;;;;;18.08;10.00;;;18.20;99.90;;;;;;5056573;28;20377;-69
2022/04/13 10:32:05;;;;;;;19.10;9.35;;;18.10;99.90;;;;;;5055037;28;20036;-70
2022/04/13 10:34:32;;;;;;;;;;;18.00;99.90;;;;;;5054377;28;20037;-69
2022/04/13 10:36:58;;;;;;;15.95;10.55;;;17.90;99.90;;;;;;5055217;28;20324;-70
2022/04/13 10:39:24;;;;;;;19.20;10.90;;;17.80;99.90;;;;;;5054219;28;20055;-70
2022/04/13 10:41:50;;;;;;;15.40;10.45;;;17.60;99.90;;;;;;5038590;28;20037;-70
2022/04/13 10:44:33;;;;;;;16.95;10.30;;;17.40;99.90;;;;;;5053650;28;20049;-70
2022/04/13 10:47:03;;;;;;;13.45;9.20;;;17.30;99.90;;;;;;5052388;28;20045;-69
2022/04/13 10:49:34;;;;;;;18.73;10.15;;;17.10;99.90;;;;;;5052850;28;20045;-69
2022/04/13 10:52:07;;;;;;;22.10;9.60;;;17.10;99.90;;;;;;5036985;28;20037;-71
2022/04/13 10:54:37;;;;;;;13.60;9.05;;;17.30;99.90;;;;;;5036940;28;20474;-69
2022/04/13 10:57:06;;;;;;;16.42;8.98;;;17.20;99.90;;;;;;5036989;28;20118;-68
2022/04/13 10:59:43;;;;;;;13.10;8.50;;;17.30;99.90;;;;;;5054892;28;20102;-68
2022/04/13 11:02:26;;;;;;;15.02;8.38;;;17.60;99.90;;;;;;5053445;28;20044;-70
2022/04/13 11:04:53;;;;;;;17.98;8.88;;;17.80;99.90;;;;;;5054157;28;20037;-72
2022/04/13 11:07:19;;;;;;;17.95;8.68;;;18.00;99.90;;;;;;5054358;28;20449;-71
2022/04/13 11:09:47;;;;;;;15.05;8.57;;;18.00;99.90;;;;;;5053511;28;20037;-71
2022/04/13 11:12:13;;;;;;;16.08;7.65;;;17.90;99.90;;;;;;5053175;28;20045;-71
2022/04/13 11:14:49;;;;;;;14.13;7.90;;;18.00;99.90;;;;;;5070280;28;20111;-72
2022/04/13 11:17:15;;;;;;;18.70;8.32;;;17.90;99.90;;;;;;5072924;28;20119;-70
2022/04/13 11:19:42;;;;;;;10.95;8.05;;;17.70;99.90;;;;;;5073200;28;20552;-72
2022/04/13 11:22:13;;;;;;;16.55;8.48;;;17.50;99.90;;;;;;5057015;28;20194;-71
2022/04/13 11:24:49;;;;;;;17.67;9.40;;;17.20;99.90;;;;;;5036287;28;20072;-71
2022/04/13 11:27:15;;;;;;;15.98;8.35;;;17.10;99.90;;;;;;5053924;28;20092;-71
2022/04/13 11:29:57;;;;;;;15.55;8.75;;;17.00;99.90;;;;;;5052795;28;20069;-71
2022/04/13 11:32:31;;;;;;;15.40;8.32;;;16.90;99.90;;;;;;5052782;28;20041;-70
2022/04/13 11:34:58;;;;;;;15.88;9.57;;;17.00;99.90;;;;;;5052714;28;20477;-70
2022/04/13 11:37:40;;;;;;;16.35;9.80;;;17.00;99.90;;;;;;5052797;28;20393;-71
2022/04/13 11:40:13;;;;;;;15.38;9.00;;;16.90;99.90;;;;;;5052623;28;20090;-71
2022/04/13 11:42:39;;;;;;;16.40;8.43;;;17.00;99.90;;;;;;5056728;28;20041;-70
2022/04/13 11:45:10;;;;;;;18.92;9.73;;;17.00;99.90;;;;;;5072545;28;20063;-70
2022/04/13 11:47:58;;;;;;;20.55;9.23;;;17.10;99.90;;;;;;5070343;28;20079;-70
2022/04/13 11:50:32;;;;;;;18.67;8.77;;;17.20;99.90;;;;;;5072379;28;20036;-71
2022/04/13 11:53:13;;;;;;;13.82;8.70;;;17.20;99.90;;;;;;5072147;28;20041;-71
2022/04/13 11:55:39;;;;;;;16.25;10.45;;;17.00;99.90;;;;;;5073834;28;20047;-70
2022/04/13 11:58:08;;;;;;;17.73;9.65;;;16.90;99.90;;;;;;5066125;28;20040;-70
2022/04/13 12:01:07;;;;;;;18.27;9.45;;;16.80;99.90;;;;;;5052332;28;20619;-71
2022/04/13 12:03:41;;;;;;;20.05;9.90;;;16.80;99.90;;;;;;5054059;28;20061;-70
2022/04/13 12:06:15;;;;;;;17.27;9.25;;;16.80;99.90;;;;;;5054811;28;20402;-70
2022/04/13 12:09:09;;;;;;;16.15;8.48;;;16.80;99.90;;;;;;5052350;28;20045;-70
2022/04/13 12:11:40;;;;;;;13.95;8.63;;;16.90;99.90;;;;;;5053298;28;20466;-71
2022/04/13 12:14:08;;;;;;;16.13;9.57;;;16.80;99.90;;;;;;5064840;28;20070;-70
2022/04/13 12:16:38;;;;;;;17.83;8.52;;;16.70;99.90;;;;;;5069518;28;20054;-70
2022/04/13 12:19:09;;;;;;;;;;;16.60;99.90;;;;;;5072313;28;20072;-71
2022/04/13 12:21:40;;;;;;;15.13;7.70;;;16.60;99.90;;;;;;5071839;28;19920;-71
2022/04/13 12:24:11;;;;;;;21.20;8.70;;;16.60;99.90;;;;;;5073026;28;20124;-70
2022/04/13 12:26:41;;;;;;;16.17;8.50;;;16.50;99.90;;;;;;5071584;28;20416;-71
2022/04/13 12:29:14;;;;;;;16.95;8.80;;;16.50;99.90;;;;;;5072032;28;20032;-71
2022/04/13 12:31:54;;;;;;;15.15;8.02;;;16.40;99.90;;;;;;5054969;28;20040;-70
2022/04/13 12:34:24;;;;;;;;;;;16.40;99.90;;;;;;5072100;28;20040;-70
2022/04/13 12:37:05;;;;;;;18.20;9.25;;;16.20;99.90;;;;;;5071869;28;20277;-71
2022/04/13 12:39:34;;;;;;;15.00;9.05;;;16.00;99.90;;;;;;5071539;28;20040;-70